Time;durP1;ratioP1;P1;durP2;ratioP2;P2;SDS_P1;SDS_P2;PMS_P1;PMS_P2;Temp;Humidity;BMP_temperature;BMP_pressure;BME280_temperature;BME280_humidity;BME280_pressure;Samples;Min_cycle;Max_cycle;Signal;HPM_P1;HPM_P2
2022/04/03 00:01:48;;;;;;;6.03;3.83;;;;;;;8.48;45.94;99447.49;1750822;111;25477;-76
2022/04/03 00:08:43;;;;;;;8.18;3.40;;;;;;;8.43;45.99;99448.70;1774094;108;25986;-76
2022/04/03 00:28:47;;;;;;;5.20;3.35;;;;;;;8.32;46.02;99444.14;1709303;113;25967;-77
2022/04/03 00:44:56;;;;;;;;;;;;;;;;;;;;;
2022/04/03 00:48:23;;;;;;;7.50;4.58;;;;;;;8.12;46.15;99443.36;1788490;109;25951;-77
2022/04/03 00:56:04;;;;;;;4.95;2.83;;;;;;;8.08;46.15;99446.75;1742216;109;26035;-77
2022/04/03 01:00:01;;;;;;;;;;;;;;;;;;;;;
2022/04/03 01:04:27;;;;;;;6.45;2.92;;;;;;;8.05;46.24;99450.16;1710320;111;25929;-77
2022/04/03 01:08:11;;;;;;;;;;;;;;;;;;;;;
2022/04/03 01:11:46;;;;;;;;;;;;;;;;;;;;;
2022/04/03 01:15:35;;;;;;;;;;;;;;;;;;;;;
2022/04/03 01:19:57;;;;;;;5.05;3.22;;;;;;;7.96;46.26;99448.67;1709597;114;25916;-76
2022/04/03 01:24:00;;;;;;;4.83;3.10;;;;;;;7.95;46.28;99452.13;1702589;114;25862;-78
2022/04/03 01:27:40;;;;;;;5.83;3.08;;;;;;;7.94;46.29;99452.98;1717478;111;25889;-79
2022/04/03 01:31:11;;;;;;;8.53;3.62;;;;;;;7.90;46.31;99457.66;1722138;112;25891;-76
2022/04/03 01:39:15;;;;;;;6.25;3.40;;;;;;;7.88;46.31;99454.16;1824715;107;25920;-76
2022/04/03 01:42:56;;;;;;;9.90;3.30;;;;;;;7.86;46.33;99457.55;1845847;103;26169;-76
2022/04/03 01:50:55;;;;;;;5.20;2.95;;;;;;;7.81;46.37;99462.67;1869310;104;26003;-79
2022/04/03 01:54:37;;;;;;;;;;;;;;;;;;;;;
2022/04/03 01:58:24;;;;;;;;;;;;;;;7.77;46.37;99474.70;1869900;104;25857;-81
2022/04/03 02:02:37;;;;;;;4.33;3.08;;;;;;;7.77;46.39;99475.13;1881888;103;25774;-79
2022/04/03 02:06:15;;;;;;;4.53;2.50;;;;;;;7.73;46.43;99478.09;1866350;104;25825;-75
2022/04/03 02:10:00;;;;;;;4.70;2.77;;;;;;;7.71;46.42;99481.48;1859542;99;25935;-77
2022/04/03 02:14:15;;;;;;;3.67;3.00;;;;;;;7.69;46.41;99481.87;1816934;107;25792;-81
2022/04/03 02:17:59;;;;;;;4.83;3.37;;;;;;;7.66;46.37;99490.48;1816237;107;25816;-77
2022/04/03 02:21:25;;;;;;;6.30;2.85;;;;;;;7.64;46.40;99483.51;1839928;105;25976;-76
2022/04/03 02:24:46;;;;;;;5.33;2.77;;;;;;;7.62;46.38;99489.94;1837107;104;25867;-76
2022/04/03 02:28:39;;;;;;;;;;;;;;;;;;;;;
2022/04/03 02:31:54;;;;;;;4.33;2.92;;;;;;;7.59;46.35;99488.58;1840109;106;25816;-77
2022/04/03 02:39:17;;;;;;;3.80;2.60;;;;;;;7.54;46.33;99493.68;1791720;108;25906;-79
2022/04/03 02:42:58;;;;;;;4.67;3.50;;;;;;;7.52;46.30;99497.94;1771554;110;26021;-79
2022/04/03 02:50:42;;;;;;;4.28;2.75;;;;;;;7.48;46.26;99501.75;1841878;106;25900;-78
2022/04/03 02:59:36;;;;;;;5.92;2.85;;;;;;;7.43;46.25;99500.78;1765851;110;25873;-77
2022/04/03 03:03:24;;;;;;;3.83;2.57;;;;;;;7.39;46.19;99507.63;1763811;109;26666;-77
2022/04/03 03:18:14;;;;;;;6.47;3.77;;;;;;;7.31;46.14;99501.38;1813298;107;26076;-77
2022/04/03 03:21:58;;;;;;;;;;;;;;;;;;;;;
2022/04/03 03:25:52;;;;;;;;;;;;;;;;;;;;;
2022/04/03 03:29:28;;;;;;;7.55;2.40;;;;;;;7.22;46.06;99518.91;1665644;113;25847;-78
2022/04/03 03:32:58;;;;;;;5.25;2.65;;;;;;;7.19;46.03;99510.16;1664822;115;25839;-79
2022/04/03 03:36:48;;;;;;;3.25;2.42;;;;;;;7.17;46.00;99523.52;1715396;111;26172;-80
2022/04/03 03:40:38;;;;;;;6.42;3.12;;;;;;;7.16;46.03;99523.07;1800953;108;25872;-78
2022/04/03 03:44:18;;;;;;;3.85;3.00;;;;;;;7.14;46.01;99527.33;1794189;107;26072;-76
2022/04/03 03:47:50;;;;;;;5.67;2.92;;;;;;;7.12;45.97;99525.11;1840810;105;25765;-77
2022/04/03 03:51:30;;;;;;;5.30;2.77;;;;;;;7.10;45.94;99528.98;1846535;105;26011;-77
2022/04/03 03:54:52;;;;;;;5.70;3.37;;;;;;;7.08;45.94;99534.11;1850216;105;25908;-77
2022/04/03 03:58:19;;;;;;;6.90;2.93;;;;;;;7.06;45.90;99537.10;1855622;105;25803;-78
2022/04/03 04:01:55;;;;;;;5.40;2.70;;;;;;;7.04;45.94;99540.48;1852961;104;26005;-77
2022/04/03 04:05:36;;;;;;;5.20;2.80;;;;;;;7.02;45.90;99544.74;1870213;103;26225;-77
2022/04/03 04:09:01;;;;;;;4.60;3.00;;;;;;;7.01;45.91;99546.89;1882442;103;25836;-77
2022/04/03 04:12:42;;;;;;;;;;;;;;;;;;;;;
2022/04/03 04:16:05;;;;;;;3.37;2.27;;;;;;;6.98;45.88;99552.86;1898340;103;25704;-77
2022/04/03 04:19:28;;;;;;;6.08;3.27;;;;;;;6.97;45.88;99558.89;1886923;103;25836;-78
2022/04/03 04:22:56;;;;;;;5.60;2.75;;;;;;;6.97;45.85;99562.78;1900055;102;25813;-77
2022/04/03 04:26:37;;;;;;;3.52;2.70;;;;;;;6.97;45.83;99569.27;1993101;96;25877;-77
2022/04/03 04:30:11;;;;;;;5.87;2.62;;;;;;;6.97;45.79;99570.98;1987720;97;26032;-78
2022/04/03 04:33:46;;;;;;;7.25;2.80;;;;;;;6.98;45.79;99572.72;1917131;101;25749;-78
2022/04/03 04:37:10;;;;;;;3.87;2.42;;;;;;;6.98;45.80;99572.30;1894257;103;25876;-77
2022/04/03 04:44:25;;;;;;;4.53;2.72;;;;;;;7.02;45.68;99579.73;1939766;100;25888;-78
2022/04/03 04:47:59;;;;;;;5.42;3.25;;;;;;;7.04;45.64;99583.25;1938067;100;25894;-78
2022/04/03 04:51:36;;;;;;;6.77;2.43;;;;;;;7.08;45.58;99588.95;1935482;100;25789;-78
2022/04/03 04:55:18;;;;;;;3.20;2.50;;;;;;;7.11;45.58;99592.92;1938413;100;25869;-78
2022/04/03 04:58:56;;;;;;;;;;;;;;;7.15;45.51;99589.98;1961672;98;25850;-77
2022/04/03 05:02:50;;;;;;;5.28;3.10;;;;;;;7.19;45.45;99595.30;1965109;99;25972;-77
2022/04/03 05:06:37;;;;;;;4.72;3.12;;;;;;;7.23;45.38;99597.55;1949914;99;25988;-77
